sensor_id;sensor_type;location;lat;lon;timestamp;P1;durP1;ratioP1;P2;durP2;ratioP2
60354;SDS011;46198;51.464;-0.066;2023-03-01T00:01:19;10.07;;;6.93;;
60354;SDS011;46198;51.464;-0.066;2023-03-01T00:03:48;9.65;;;6.80;;
60354;SDS011;46198;51.464;-0.066;2023-03-01T00:06:16;12.73;;;7.77;;
60354;SDS011;46198;51.464;-0.066;2023-03-01T00:08:45;10.07;;;7.40;;
60354;SDS011;46198;51.464;-0.066;2023-03-01T00:11:14;14.87;;;7.43;;
60354;SDS011;46198;51.464;-0.066;2023-03-01T00:13:46;13.10;;;7.03;;
60354;SDS011;46198;51.464;-0.066;2023-03-01T00:16:16;11.93;;;7.50;;
60354;SDS011;46198;51.464;-0.066;2023-03-01T00:18:46;15.68;;;7.43;;
60354;SDS011;46198;51.464;-0.066;2023-03-01T00:21:14;12.07;;;8.10;;
60354;SDS011;46198;51.464;-0.066;2023-03-01T00:23:42;10.63;;;7.27;;
60354;SDS011;46198;51.464;-0.066;2023-03-01T00:26:11;13.30;;;7.80;;
60354;SDS011;46198;51.464;-0.066;2023-03-01T00:28:41;10.35;;;7.32;;
60354;SDS011;46198;51.464;-0.066;2023-03-01T00:31:11;10.73;;;7.40;;
60354;SDS011;46198;51.464;-0.066;2023-03-01T00:33:41;13.40;;;7.00;;
60354;SDS011;46198;51.464;-0.066;2023-03-01T00:36:09;15.57;;;8.03;;
60354;SDS011;46198;51.464;-0.066;2023-03-01T00:38:39;14.17;;;7.63;;
60354;SDS011;46198;51.464;-0.066;2023-03-01T00:41:09;13.97;;;7.50;;
60354;SDS011;46198;51.464;-0.066;2023-03-01T00:43:38;12.00;;;7.70;;
60354;SDS011;46198;51.464;-0.066;2023-03-01T00:46:08;11.70;;;8.30;;
60354;SDS011;46198;51.464;-0.066;2023-03-01T00:48:38;11.67;;;7.60;;
60354;SDS011;46198;51.464;-0.066;2023-03-01T00:51:07;12.93;;;7.90;;
60354;SDS011;46198;51.464;-0.066;2023-03-01T00:53:37;10.37;;;7.17;;
60354;SDS011;46198;51.464;-0.066;2023-03-01T00:58:59;10.80;;;6.87;;
60354;SDS011;46198;51.464;-0.066;2023-03-01T01:01:28;12.57;;;7.93;;
60354;SDS011;46198;51.464;-0.066;2023-03-01T01:04:00;13.50;;;8.07;;
60354;SDS011;46198;51.464;-0.066;2023-03-01T01:06:32;11.47;;;7.13;;
60354;SDS011;46198;51.464;-0.066;2023-03-01T01:09:02;14.43;;;8.73;;
60354;SDS011;46198;51.464;-0.066;2023-03-01T01:11:31;11.43;;;7.00;;
60354;SDS011;46198;51.464;-0.066;2023-03-01T01:13:59;11.83;;;7.57;;
60354;SDS011;46198;51.464;-0.066;2023-03-01T01:16:28;15.83;;;7.87;;
60354;SDS011;46198;51.464;-0.066;2023-03-01T01:18:59;14.57;;;7.73;;
60354;SDS011;46198;51.464;-0.066;2023-03-01T01:21:27;13.67;;;7.60;;
60354;SDS011;46198;51.464;-0.066;2023-03-01T01:23:55;12.80;;;7.27;;
60354;SDS011;46198;51.464;-0.066;2023-03-01T01:26:25;12.70;;;7.27;;
60354;SDS011;46198;51.464;-0.066;2023-03-01T01:28:55;9.85;;;6.68;;
60354;SDS011;46198;51.464;-0.066;2023-03-01T01:31:24;10.47;;;5.53;;
60354;SDS011;46198;51.464;-0.066;2023-03-01T01:33:52;5.73;;;4.47;;
60354;SDS011;46198;51.464;-0.066;2023-03-01T01:36:23;8.60;;;4.50;;
60354;SDS011;46198;51.464;-0.066;2023-03-01T01:38:51;7.70;;;4.00;;
60354;SDS011;46198;51.464;-0.066;2023-03-01T01:41:20;5.73;;;4.20;;
60354;SDS011;46198;51.464;-0.066;2023-03-01T01:43:49;9.13;;;3.37;;
60354;SDS011;46198;51.464;-0.066;2023-03-01T01:46:36;8.47;;;4.43;;
60354;SDS011;46198;51.464;-0.066;2023-03-01T01:49:07;6.65;;;3.33;;
60354;SDS011;46198;51.464;-0.066;2023-03-01T01:51:44;8.13;;;3.30;;
60354;SDS011;46198;51.464;-0.066;2023-03-01T01:54:20;3.80;;;2.67;;
60354;SDS011;46198;51.464;-0.066;2023-03-01T01:56:54;8.10;;;3.20;;
60354;SDS011;46198;51.464;-0.066;2023-03-01T01:59:26;4.67;;;2.80;;
60354;SDS011;46198;51.464;-0.066;2023-03-01T02:01:58;5.97;;;3.03;;
60354;SDS011;46198;51.464;-0.066;2023-03-01T02:04:28;4.90;;;3.10;;
60354;SDS011;46198;51.464;-0.066;2023-03-01T02:06:59;4.90;;;2.70;;
60354;SDS011;46198;51.464;-0.066;2023-03-01T02:09:30;4.33;;;2.67;;
60354;SDS011;46198;51.464;-0.066;2023-03-01T02:12:00;5.73;;;2.63;;
60354;SDS011;46198;51.464;-0.066;2023-03-01T02:14:29;5.50;;;2.93;;
60354;SDS011;46198;51.464;-0.066;2023-03-01T02:16:57;4.30;;;2.63;;
60354;SDS011;46198;51.464;-0.066;2023-03-01T02:19:30;5.67;;;3.13;;
60354;SDS011;46198;51.464;-0.066;2023-03-01T02:22:12;5.53;;;3.53;;
60354;SDS011;46198;51.464;-0.066;2023-03-01T02:24:49;4.60;;;2.83;;
60354;SDS011;46198;51.464;-0.066;2023-03-01T02:27:31;5.73;;;3.00;;
60354;SDS011;46198;51.464;-0.066;2023-03-01T02:30:06;7.00;;;2.97;;
60354;SDS011;46198;51.464;-0.066;2023-03-01T02:35:32;6.80;;;3.00;;
60354;SDS011;46198;51.464;-0.066;2023-03-01T02:38:02;6.50;;;3.13;;
60354;SDS011;46198;51.464;-0.066;2023-03-01T02:40:34;8.23;;;3.10;;
60354;SDS011;46198;51.464;-0.066;2023-03-01T02:43:06;14.87;;;3.47;;
60354;SDS011;46198;51.464;-0.066;2023-03-01T02:45:47;6.17;;;3.00;;
60354;SDS011;46198;51.464;-0.066;2023-03-01T02:48:16;3.83;;;2.67;;
60354;SDS011;46198;51.464;-0.066;2023-03-01T02:50:47;8.90;;;3.33;;
60354;SDS011;46198;51.464;-0.066;2023-03-01T02:53:27;4.00;;;2.50;;
60354;SDS011;46198;51.464;-0.066;2023-03-01T02:56:04;3.90;;;2.63;;
60354;SDS011;46198;51.464;-0.066;2023-03-01T02:58:32;3.87;;;2.33;;
60354;SDS011;46198;51.464;-0.066;2023-03-01T03:01:08;5.53;;;2.53;;
60354;SDS011;46198;51.464;-0.066;2023-03-01T03:03:36;2.83;;;2.40;;
60354;SDS011;46198;51.464;-0.066;2023-03-01T03:06:04;6.27;;;2.73;;
60354;SDS011;46198;51.464;-0.066;2023-03-01T03:08:32;3.20;;;2.10;;
60354;SDS011;46198;51.464;-0.066;2023-03-01T03:11:00;5.43;;;2.63;;
60354;SDS011;46198;51.464;-0.066;2023-03-01T03:13:28;4.70;;;1.83;;
60354;SDS011;46198;51.464;-0.066;2023-03-01T03:15:56;4.60;;;2.60;;
60354;SDS011;46198;51.464;-0.066;2023-03-01T03:18:26;5.53;;;2.57;;
60354;SDS011;46198;51.464;-0.066;2023-03-01T03:20:54;8.07;;;3.23;;
60354;SDS011;46198;51.464;-0.066;2023-03-01T03:23:22;6.30;;;2.47;;
60354;SDS011;46198;51.464;-0.066;2023-03-01T03:25:50;8.03;;;3.10;;
60354;SDS011;46198;51.464;-0.066;2023-03-01T03:28:18;9.87;;;3.27;;
60354;SDS011;46198;51.464;-0.066;2023-03-01T03:30:46;7.60;;;2.67;;
60354;SDS011;46198;51.464;-0.066;2023-03-01T03:33:14;11.53;;;3.00;;
60354;SDS011;46198;51.464;-0.066;2023-03-01T03:35:44;7.00;;;3.10;;
60354;SDS011;46198;51.464;-0.066;2023-03-01T03:38:14;7.60;;;3.20;;
60354;SDS011;46198;51.464;-0.066;2023-03-01T03:40:44;10.57;;;2.60;;
60354;SDS011;46198;51.464;-0.066;2023-03-01T03:43:14;5.70;;;2.90;;
60354;SDS011;46198;51.464;-0.066;2023-03-01T03:45:44;7.63;;;3.17;;
60354;SDS011;46198;51.464;-0.066;2023-03-01T03:48:12;7.80;;;3.10;;
60354;SDS011;46198;51.464;-0.066;2023-03-01T03:50:41;7.23;;;2.70;;
60354;SDS011;46198;51.464;-0.066;2023-03-01T03:53:11;5.13;;;2.70;;
60354;SDS011;46198;51.464;-0.066;2023-03-01T03:55:39;5.23;;;3.10;;
60354;SDS011;46198;51.464;-0.066;2023-03-01T03:58:08;9.03;;;3.03;;
60354;SDS011;46198;51.464;-0.066;2023-03-01T04:00:38;5.70;;;3.13;;
60354;SDS011;46198;51.464;-0.066;2023-03-01T04:03:07;6.03;;;2.27;;
60354;SDS011;46198;51.464;-0.066;2023-03-01T04:05:36;9.70;;;2.87;;
60354;SDS011;46198;51.464;-0.066;2023-03-01T04:08:05;8.03;;;3.03;;
60354;SDS011;46198;51.464;-0.066;2023-03-01T04:10:38;4.78;;;2.15;;
60354;SDS011;46198;51.464;-0.066;2023-03-01T04:13:08;5.40;;;1.85;;
60354;SDS011;46198;51.464;-0.066;2023-03-01T04:18:06;6.47;;;2.03;;
60354;SDS011;46198;51.464;-0.066;2023-03-01T04:20:36;9.77;;;3.17;;
60354;SDS011;46198;51.464;-0.066;2023-03-01T04:23:05;5.87;;;2.07;;
60354;SDS011;46198;51.464;-0.066;2023-03-01T04:25:41;6.70;;;1.90;;
60354;SDS011;46198;51.464;-0.066;2023-03-01T04:28:12;5.23;;;2.60;;
60354;SDS011;46198;51.464;-0.066;2023-03-01T04:30:40;7.40;;;2.23;;
60354;SDS011;46198;51.464;-0.066;2023-03-01T04:33:09;6.97;;;2.00;;
60354;SDS011;46198;51.464;-0.066;2023-03-01T04:35:38;9.37;;;2.53;;
60354;SDS011;46198;51.464;-0.066;2023-03-01T04:38:07;6.13;;;2.00;;
60354;SDS011;46198;51.464;-0.066;2023-03-01T04:40:35;4.70;;;2.10;;
60354;SDS011;46198;51.464;-0.066;2023-03-01T04:43:05;2.87;;;2.23;;
60354;SDS011;46198;51.464;-0.066;2023-03-01T04:45:33;4.17;;;2.30;;
60354;SDS011;46198;51.464;-0.066;2023-03-01T04:48:02;5.97;;;2.00;;
60354;SDS011;46198;51.464;-0.066;2023-03-01T04:50:31;4.50;;;2.00;;
60354;SDS011;46198;51.464;-0.066;2023-03-01T04:53:00;5.00;;;2.07;;
60354;SDS011;46198;51.464;-0.066;2023-03-01T04:55:28;4.57;;;1.90;;
60354;SDS011;46198;51.464;-0.066;2023-03-01T04:57:56;4.97;;;2.30;;
60354;SDS011;46198;51.464;-0.066;2023-03-01T05:00:26;7.23;;;2.17;;
60354;SDS011;46198;51.464;-0.066;2023-03-01T05:02:55;4.27;;;2.40;;
60354;SDS011;46198;51.464;-0.066;2023-03-01T05:05:25;6.85;;;2.33;;
60354;SDS011;46198;51.464;-0.066;2023-03-01T05:10:24;4.80;;;2.07;;
60354;SDS011;46198;51.464;-0.066;2023-03-01T05:12:53;4.37;;;1.93;;
60354;SDS011;46198;51.464;-0.066;2023-03-01T05:15:21;3.20;;;1.70;;
60354;SDS011;46198;51.464;-0.066;2023-03-01T05:17:54;5.28;;;1.77;;
60354;SDS011;46198;51.464;-0.066;2023-03-01T05:20:24;3.20;;;1.40;;
60354;SDS011;46198;51.464;-0.066;2023-03-01T05:22:54;1.93;;;1.40;;
60354;SDS011;46198;51.464;-0.066;2023-03-01T05:25:23;2.88;;;1.70;;
60354;SDS011;46198;51.464;-0.066;2023-03-01T05:27:51;4.37;;;1.70;;
60354;SDS011;46198;51.464;-0.066;2023-03-01T05:30:19;7.33;;;1.80;;
60354;SDS011;46198;51.464;-0.066;2023-03-01T05:32:48;5.33;;;1.60;;
60354;SDS011;46198;51.464;-0.066;2023-03-01T05:35:23;2.80;;;1.57;;
60354;SDS011;46198;51.464;-0.066;2023-03-01T05:42:00;2.50;;;1.20;;
60354;SDS011;46198;51.464;-0.066;2023-03-01T05:44:28;3.33;;;1.33;;
60354;SDS011;46198;51.464;-0.066;2023-03-01T05:46:57;3.53;;;1.60;;
60354;SDS011;46198;51.464;-0.066;2023-03-01T05:49:25;3.17;;;1.30;;
60354;SDS011;46198;51.464;-0.066;2023-03-01T05:51:54;2.50;;;1.97;;
60354;SDS011;46198;51.464;-0.066;2023-03-01T05:57:16;2.37;;;1.43;;
60354;SDS011;46198;51.464;-0.066;2023-03-01T05:59:45;2.43;;;1.70;;
60354;SDS011;46198;51.464;-0.066;2023-03-01T06:02:13;3.63;;;1.90;;
60354;SDS011;46198;51.464;-0.066;2023-03-01T06:04:41;2.60;;;1.80;;
60354;SDS011;46198;51.464;-0.066;2023-03-01T06:07:10;1.80;;;1.47;;
60354;SDS011;46198;51.464;-0.066;2023-03-01T06:09:39;2.92;;;1.27;;
60354;SDS011;46198;51.464;-0.066;2023-03-01T06:12:07;2.90;;;1.40;;
60354;SDS011;46198;51.464;-0.066;2023-03-01T06:14:37;2.57;;;1.73;;
60354;SDS011;46198;51.464;-0.066;2023-03-01T06:17:05;2.00;;;1.67;;
60354;SDS011;46198;51.464;-0.066;2023-03-01T06:19:33;3.13;;;1.70;;
60354;SDS011;46198;51.464;-0.066;2023-03-01T06:22:01;3.30;;;1.77;;
60354;SDS011;46198;51.464;-0.066;2023-03-01T06:24:31;3.80;;;1.80;;
60354;SDS011;46198;51.464;-0.066;2023-03-01T06:26:59;3.37;;;1.87;;
60354;SDS011;46198;51.464;-0.066;2023-03-01T06:29:27;2.77;;;1.63;;
60354;SDS011;46198;51.464;-0.066;2023-03-01T06:31:55;2.50;;;1.67;;
60354;SDS011;46198;51.464;-0.066;2023-03-01T06:34:23;4.37;;;2.00;;
60354;SDS011;46198;51.464;-0.066;2023-03-01T06:36:51;2.83;;;1.80;;
60354;SDS011;46198;51.464;-0.066;2023-03-01T06:39:19;3.60;;;1.83;;
60354;SDS011;46198;51.464;-0.066;2023-03-01T06:41:49;3.00;;;1.40;;
60354;SDS011;46198;51.464;-0.066;2023-03-01T06:44:19;6.43;;;1.87;;
60354;SDS011;46198;51.464;-0.066;2023-03-01T06:46:47;2.27;;;1.50;;
60354;SDS011;46198;51.464;-0.066;2023-03-01T06:49:15;5.23;;;1.70;;
60354;SDS011;46198;51.464;-0.066;2023-03-01T06:51:44;5.83;;;1.87;;
60354;SDS011;46198;51.464;-0.066;2023-03-01T06:54:12;2.30;;;1.60;;
60354;SDS011;46198;51.464;-0.066;2023-03-01T06:56:41;3.87;;;2.00;;
60354;SDS011;46198;51.464;-0.066;2023-03-01T06:59:10;3.63;;;1.87;;
60354;SDS011;46198;51.464;-0.066;2023-03-01T07:01:38;11.27;;;3.13;;
60354;SDS011;46198;51.464;-0.066;2023-03-01T07:04:06;4.27;;;2.60;;
60354;SDS011;46198;51.464;-0.066;2023-03-01T07:06:34;11.97;;;3.63;;
60354;SDS011;46198;51.464;-0.066;2023-03-01T07:09:02;11.07;;;3.03;;
60354;SDS011;46198;51.464;-0.066;2023-03-01T07:11:30;8.67;;;2.93;;
60354;SDS011;46198;51.464;-0.066;2023-03-01T07:13:58;4.73;;;2.13;;
60354;SDS011;46198;51.464;-0.066;2023-03-01T07:16:27;6.20;;;2.20;;
60354;SDS011;46198;51.464;-0.066;2023-03-01T07:18:56;3.83;;;1.60;;
60354;SDS011;46198;51.464;-0.066;2023-03-01T07:21:25;4.40;;;2.23;;
60354;SDS011;46198;51.464;-0.066;2023-03-01T07:23:53;2.60;;;2.17;;
60354;SDS011;46198;51.464;-0.066;2023-03-01T07:26:21;3.13;;;2.00;;
60354;SDS011;46198;51.464;-0.066;2023-03-01T07:28:51;5.32;;;2.10;;
60354;SDS011;46198;51.464;-0.066;2023-03-01T07:31:19;5.30;;;2.70;;
60354;SDS011;46198;51.464;-0.066;2023-03-01T07:33:48;4.20;;;2.00;;
60354;SDS011;46198;51.464;-0.066;2023-03-01T07:36:16;5.63;;;2.03;;
60354;SDS011;46198;51.464;-0.066;2023-03-01T07:38:44;4.80;;;2.07;;
60354;SDS011;46198;51.464;-0.066;2023-03-01T07:41:12;4.93;;;2.30;;
60354;SDS011;46198;51.464;-0.066;2023-03-01T07:43:40;3.57;;;2.13;;
60354;SDS011;46198;51.464;-0.066;2023-03-01T07:46:09;5.60;;;2.00;;
60354;SDS011;46198;51.464;-0.066;2023-03-01T07:48:37;3.00;;;1.90;;
60354;SDS011;46198;51.464;-0.066;2023-03-01T07:51:06;4.93;;;2.13;;
60354;SDS011;46198;51.464;-0.066;2023-03-01T07:53:34;4.90;;;2.20;;
60354;SDS011;46198;51.464;-0.066;2023-03-01T07:56:03;3.80;;;2.07;;
60354;SDS011;46198;51.464;-0.066;2023-03-01T07:58:33;5.07;;;2.57;;
60354;SDS011;46198;51.464;-0.066;2023-03-01T08:01:02;4.67;;;2.50;;
60354;SDS011;46198;51.464;-0.066;2023-03-01T08:07:37;4.43;;;2.20;;
60354;SDS011;46198;51.464;-0.066;2023-03-01T08:10:05;3.93;;;1.83;;
60354;SDS011;46198;51.464;-0.066;2023-03-01T08:12:34;4.03;;;1.90;;
60354;SDS011;46198;51.464;-0.066;2023-03-01T08:15:02;4.13;;;1.87;;
60354;SDS011;46198;51.464;-0.066;2023-03-01T08:17:30;8.60;;;2.33;;
60354;SDS011;46198;51.464;-0.066;2023-03-01T08:19:58;3.97;;;1.87;;
60354;SDS011;46198;51.464;-0.066;2023-03-01T08:22:26;8.03;;;2.10;;
60354;SDS011;46198;51.464;-0.066;2023-03-01T08:24:56;3.93;;;2.03;;
60354;SDS011;46198;51.464;-0.066;2023-03-01T08:27:24;5.87;;;1.80;;
60354;SDS011;46198;51.464;-0.066;2023-03-01T08:29:52;3.37;;;1.73;;
60354;SDS011;46198;51.464;-0.066;2023-03-01T08:32:20;3.20;;;1.70;;
60354;SDS011;46198;51.464;-0.066;2023-03-01T08:34:48;6.40;;;2.77;;
60354;SDS011;46198;51.464;-0.066;2023-03-01T08:37:16;6.77;;;4.00;;
60354;SDS011;46198;51.464;-0.066;2023-03-01T08:39:44;7.67;;;4.17;;
60354;SDS011;46198;51.464;-0.066;2023-03-01T08:42:13;6.37;;;3.70;;
60354;SDS011;46198;51.464;-0.066;2023-03-01T08:44:41;6.50;;;2.80;;
60354;SDS011;46198;51.464;-0.066;2023-03-01T08:47:12;6.05;;;3.13;;
60354;SDS011;46198;51.464;-0.066;2023-03-01T08:49:40;7.93;;;2.80;;
60354;SDS011;46198;51.464;-0.066;2023-03-01T08:52:08;4.87;;;2.33;;
60354;SDS011;46198;51.464;-0.066;2023-03-01T08:54:36;3.43;;;2.00;;
60354;SDS011;46198;51.464;-0.066;2023-03-01T08:57:04;3.67;;;2.07;;
60354;SDS011;46198;51.464;-0.066;2023-03-01T08:59:33;5.93;;;2.50;;
60354;SDS011;46198;51.464;-0.066;2023-03-01T09:02:03;5.90;;;3.20;;
60354;SDS011;46198;51.464;-0.066;2023-03-01T09:04:31;6.73;;;2.80;;
60354;SDS011;46198;51.464;-0.066;2023-03-01T09:07:00;6.03;;;2.50;;
60354;SDS011;46198;51.464;-0.066;2023-03-01T09:09:28;4.77;;;2.10;;
60354;SDS011;46198;51.464;-0.066;2023-03-01T09:11:56;6.60;;;2.00;;
60354;SDS011;46198;51.464;-0.066;2023-03-01T09:14:24;3.70;;;1.50;;
60354;SDS011;46198;51.464;-0.066;2023-03-01T09:16:53;6.00;;;1.73;;
60354;SDS011;46198;51.464;-0.066;2023-03-01T09:19:21;3.47;;;1.93;;
60354;SDS011;46198;51.464;-0.066;2023-03-01T09:24:22;5.67;;;2.53;;
60354;SDS011;46198;51.464;-0.066;2023-03-01T09:26:53;5.87;;;2.10;;
60354;SDS011;46198;51.464;-0.066;2023-03-01T09:29:22;6.32;;;2.67;;
60354;SDS011;46198;51.464;-0.066;2023-03-01T09:31:50;5.73;;;2.03;;
60354;SDS011;46198;51.464;-0.066;2023-03-01T09:34:23;8.18;;;2.90;;
60354;SDS011;46198;51.464;-0.066;2023-03-01T09:36:51;6.27;;;2.17;;
60354;SDS011;46198;51.464;-0.066;2023-03-01T09:39:19;4.33;;;2.03;;
60354;SDS011;46198;51.464;-0.066;2023-03-01T09:41:49;5.17;;;2.40;;
60354;SDS011;46198;51.464;-0.066;2023-03-01T09:44:23;3.47;;;2.00;;
60354;SDS011;46198;51.464;-0.066;2023-03-01T09:46:57;6.40;;;2.13;;
60354;SDS011;46198;51.464;-0.066;2023-03-01T09:49:28;5.00;;;1.77;;
60354;SDS011;46198;51.464;-0.066;2023-03-01T09:51:59;3.60;;;1.70;;
60354;SDS011;46198;51.464;-0.066;2023-03-01T09:54:31;6.83;;;2.57;;
60354;SDS011;46198;51.464;-0.066;2023-03-01T09:57:01;3.10;;;2.03;;
60354;SDS011;46198;51.464;-0.066;2023-03-01T09:59:37;6.00;;;2.33;;
60354;SDS011;46198;51.464;-0.066;2023-03-01T10:02:21;2.93;;;1.60;;
60354;SDS011;46198;51.464;-0.066;2023-03-01T10:04:57;2.40;;;1.20;;
60354;SDS011;46198;51.464;-0.066;2023-03-01T10:07:36;2.47;;;1.33;;
60354;SDS011;46198;51.464;-0.066;2023-03-01T10:10:23;3.23;;;1.40;;
60354;SDS011;46198;51.464;-0.066;2023-03-01T10:12:55;3.63;;;1.40;;
60354;SDS011;46198;51.464;-0.066;2023-03-01T10:15:25;3.50;;;1.50;;
60354;SDS011;46198;51.464;-0.066;2023-03-01T10:18:02;3.67;;;1.27;;
60354;SDS011;46198;51.464;-0.066;2023-03-01T10:20:39;2.67;;;1.40;;
60354;SDS011;46198;51.464;-0.066;2023-03-01T10:23:13;2.17;;;1.40;;
60354;SDS011;46198;51.464;-0.066;2023-03-01T10:25:47;1.40;;;1.20;;
60354;SDS011;46198;51.464;-0.066;2023-03-01T10:28:25;3.47;;;1.20;;
60354;SDS011;46198;51.464;-0.066;2023-03-01T10:30:57;1.07;;;0.70;;
60354;SDS011;46198;51.464;-0.066;2023-03-01T10:33:27;1.00;;;0.80;;
60354;SDS011;46198;51.464;-0.066;2023-03-01T10:36:00;3.87;;;1.13;;
60354;SDS011;46198;51.464;-0.066;2023-03-01T10:38:28;4.03;;;1.10;;
60354;SDS011;46198;51.464;-0.066;2023-03-01T10:40:59;5.13;;;2.08;;
60354;SDS011;46198;51.464;-0.066;2023-03-01T10:43:40;4.83;;;1.73;;
60354;SDS011;46198;51.464;-0.066;2023-03-01T10:46:21;4.50;;;1.92;;
60354;SDS011;46198;51.464;-0.066;2023-03-01T10:49:07;2.90;;;1.47;;
60354;SDS011;46198;51.464;-0.066;2023-03-01T10:51:43;4.63;;;1.92;;
60354;SDS011;46198;51.464;-0.066;2023-03-01T10:54:16;4.87;;;2.43;;
60354;SDS011;46198;51.464;-0.066;2023-03-01T10:56:48;6.47;;;1.87;;
60354;SDS011;46198;51.464;-0.066;2023-03-01T10:59:21;4.17;;;1.50;;
60354;SDS011;46198;51.464;-0.066;2023-03-01T11:02:03;7.53;;;2.07;;
60354;SDS011;46198;51.464;-0.066;2023-03-01T11:04:58;4.70;;;1.70;;
60354;SDS011;46198;51.464;-0.066;2023-03-01T11:07:28;3.63;;;1.50;;
60354;SDS011;46198;51.464;-0.066;2023-03-01T11:09:56;2.93;;;1.50;;
60354;SDS011;46198;51.464;-0.066;2023-03-01T11:12:24;2.33;;;1.37;;
60354;SDS011;46198;51.464;-0.066;2023-03-01T11:14:56;2.27;;;1.20;;
60354;SDS011;46198;51.464;-0.066;2023-03-01T11:17:26;3.73;;;1.30;;
60354;SDS011;46198;51.464;-0.066;2023-03-01T11:20:06;5.70;;;1.23;;
60354;SDS011;46198;51.464;-0.066;2023-03-01T11:22:52;2.83;;;1.10;;
60354;SDS011;46198;51.464;-0.066;2023-03-01T11:25:23;3.23;;;1.30;;
60354;SDS011;46198;51.464;-0.066;2023-03-01T11:27:53;6.30;;;1.60;;
60354;SDS011;46198;51.464;-0.066;2023-03-01T11:30:24;3.80;;;1.88;;
60354;SDS011;46198;51.464;-0.066;2023-03-01T11:33:01;3.23;;;1.50;;
60354;SDS011;46198;51.464;-0.066;2023-03-01T11:35:35;4.47;;;1.90;;
60354;SDS011;46198;51.464;-0.066;2023-03-01T11:38:17;4.83;;;2.10;;
60354;SDS011;46198;51.464;-0.066;2023-03-01T11:40:50;3.38;;;1.67;;
60354;SDS011;46198;51.464;-0.066;2023-03-01T11:43:31;4.47;;;1.80;;
60354;SDS011;46198;51.464;-0.066;2023-03-01T11:46:16;5.47;;;2.03;;
60354;SDS011;46198;51.464;-0.066;2023-03-01T11:49:19;7.73;;;1.77;;
60354;SDS011;46198;51.464;-0.066;2023-03-01T11:52:06;3.50;;;1.50;;
60354;SDS011;46198;51.464;-0.066;2023-03-01T11:54:48;5.50;;;2.13;;
60354;SDS011;46198;51.464;-0.066;2023-03-01T11:57:33;4.77;;;2.13;;
60354;SDS011;46198;51.464;-0.066;2023-03-01T12:06:06;7.20;;;2.63;;
60354;SDS011;46198;51.464;-0.066;2023-03-01T12:08:53;3.30;;;1.97;;
60354;SDS011;46198;51.464;-0.066;2023-03-01T12:11:35;5.07;;;1.63;;
60354;SDS011;46198;51.464;-0.066;2023-03-01T12:17:15;2.20;;;1.30;;
60354;SDS011;46198;51.464;-0.066;2023-03-01T12:20:00;2.97;;;1.33;;
60354;SDS011;46198;51.464;-0.066;2023-03-01T12:22:38;4.23;;;1.50;;
60354;SDS011;46198;51.464;-0.066;2023-03-01T12:25:19;3.37;;;1.30;;
60354;SDS011;46198;51.464;-0.066;2023-03-01T12:28:01;3.57;;;1.43;;
60354;SDS011;46198;51.464;-0.066;2023-03-01T12:30:42;2.23;;;1.40;;
60354;SDS011;46198;51.464;-0.066;2023-03-01T12:33:26;2.57;;;1.60;;
60354;SDS011;46198;51.464;-0.066;2023-03-01T12:36:09;1.57;;;1.47;;
60354;SDS011;46198;51.464;-0.066;2023-03-01T12:38:59;2.00;;;1.40;;
60354;SDS011;46198;51.464;-0.066;2023-03-01T12:41:48;2.10;;;1.33;;
60354;SDS011;46198;51.464;-0.066;2023-03-01T12:44:30;4.43;;;1.27;;
60354;SDS011;46198;51.464;-0.066;2023-03-01T12:47:19;3.53;;;1.43;;
60354;SDS011;46198;51.464;-0.066;2023-03-01T12:49:59;3.47;;;1.63;;
60354;SDS011;46198;51.464;-0.066;2023-03-01T12:52:33;2.83;;;1.43;;
60354;SDS011;46198;51.464;-0.066;2023-03-01T12:55:08;1.77;;;1.27;;
60354;SDS011;46198;51.464;-0.066;2023-03-01T12:57:53;2.10;;;1.50;;
60354;SDS011;46198;51.464;-0.066;2023-03-01T13:00:30;3.10;;;1.67;;
60354;SDS011;46198;51.464;-0.066;2023-03-01T13:03:05;3.63;;;1.80;;
60354;SDS011;46198;51.464;-0.066;2023-03-01T13:05:46;4.53;;;2.33;;
60354;SDS011;46198;51.464;-0.066;2023-03-01T13:08:26;11.43;;;4.20;;
60354;SDS011;46198;51.464;-0.066;2023-03-01T13:11:00;5.07;;;2.13;;
60354;SDS011;46198;51.464;-0.066;2023-03-01T13:13:31;3.83;;;2.03;;
60354;SDS011;46198;51.464;-0.066;2023-03-01T13:16:19;6.87;;;2.70;;
60354;SDS011;46198;51.464;-0.066;2023-03-01T13:18:50;8.80;;;2.97;;
60354;SDS011;46198;51.464;-0.066;2023-03-01T13:21:34;3.80;;;2.60;;
60354;SDS011;46198;51.464;-0.066;2023-03-01T13:24:02;3.07;;;1.77;;
60354;SDS011;46198;51.464;-0.066;2023-03-01T13:26:30;3.63;;;1.70;;
60354;SDS011;46198;51.464;-0.066;2023-03-01T13:28:58;2.80;;;1.60;;
60354;SDS011;46198;51.464;-0.066;2023-03-01T13:34:47;3.28;;;1.95;;
60354;SDS011;46198;51.464;-0.066;2023-03-01T13:37:20;3.53;;;1.80;;
60354;SDS011;46198;51.464;-0.066;2023-03-01T13:39:52;4.33;;;1.90;;
60354;SDS011;46198;51.464;-0.066;2023-03-01T13:42:37;2.80;;;1.37;;
60354;SDS011;46198;51.464;-0.066;2023-03-01T13:45:14;1.20;;;1.10;;
60354;SDS011;46198;51.464;-0.066;2023-03-01T13:47:51;3.47;;;1.13;;
60354;SDS011;46198;51.464;-0.066;2023-03-01T13:50:25;1.73;;;1.17;;
60354;SDS011;46198;51.464;-0.066;2023-03-01T13:52:56;3.33;;;1.23;;
60354;SDS011;46198;51.464;-0.066;2023-03-01T13:55:30;2.67;;;1.30;;
60354;SDS011;46198;51.464;-0.066;2023-03-01T13:58:13;2.77;;;1.10;;
60354;SDS011;46198;51.464;-0.066;2023-03-01T14:00:43;3.10;;;1.20;;
60354;SDS011;46198;51.464;-0.066;2023-03-01T14:03:14;1.93;;;1.27;;
60354;SDS011;46198;51.464;-0.066;2023-03-01T14:05:43;1.83;;;1.30;;
60354;SDS011;46198;51.464;-0.066;2023-03-01T14:08:38;2.67;;;1.10;;
60354;SDS011;46198;51.464;-0.066;2023-03-01T14:11:14;1.93;;;1.30;;
60354;SDS011;46198;51.464;-0.066;2023-03-01T14:13:55;3.47;;;1.40;;
60354;SDS011;46198;51.464;-0.066;2023-03-01T14:16:37;1.80;;;1.20;;
60354;SDS011;46198;51.464;-0.066;2023-03-01T14:19:16;1.77;;;1.20;;
60354;SDS011;46198;51.464;-0.066;2023-03-01T14:21:59;1.30;;;1.20;;
60354;SDS011;46198;51.464;-0.066;2023-03-01T14:24:33;2.50;;;1.20;;
60354;SDS011;46198;51.464;-0.066;2023-03-01T14:27:09;1.20;;;1.20;;
60354;SDS011;46198;51.464;-0.066;2023-03-01T14:29:39;1.50;;;1.30;;
60354;SDS011;46198;51.464;-0.066;2023-03-01T14:32:08;2.07;;;1.30;;
60354;SDS011;46198;51.464;-0.066;2023-03-01T14:34:43;1.00;;;0.80;;
60354;SDS011;46198;51.464;-0.066;2023-03-01T14:37:17;1.23;;;1.10;;
60354;SDS011;46198;51.464;-0.066;2023-03-01T14:39:47;1.27;;;1.00;;
60354;SDS011;46198;51.464;-0.066;2023-03-01T14:42:16;4.77;;;1.83;;
60354;SDS011;46198;51.464;-0.066;2023-03-01T14:44:46;4.60;;;1.30;;
60354;SDS011;46198;51.464;-0.066;2023-03-01T14:47:18;2.63;;;1.10;;
60354;SDS011;46198;51.464;-0.066;2023-03-01T14:49:56;1.37;;;1.27;;
60354;SDS011;46198;51.464;-0.066;2023-03-01T14:52:28;1.43;;;1.10;;
60354;SDS011;46198;51.464;-0.066;2023-03-01T14:55:03;2.97;;;1.07;;
60354;SDS011;46198;51.464;-0.066;2023-03-01T14:57:33;1.98;;;1.40;;
60354;SDS011;46198;51.464;-0.066;2023-03-01T15:00:05;1.73;;;1.10;;
60354;SDS011;46198;51.464;-0.066;2023-03-01T15:02:34;4.33;;;2.50;;
60354;SDS011;46198;51.464;-0.066;2023-03-01T15:05:04;1.83;;;1.30;;
60354;SDS011;46198;51.464;-0.066;2023-03-01T15:07:35;3.33;;;1.27;;
60354;SDS011;46198;51.464;-0.066;2023-03-01T15:10:07;1.43;;;1.07;;
60354;SDS011;46198;51.464;-0.066;2023-03-01T15:12:44;1.30;;;1.20;;
60354;SDS011;46198;51.464;-0.066;2023-03-01T15:15:19;1.07;;;1.00;;
60354;SDS011;46198;51.464;-0.066;2023-03-01T15:18:05;1.50;;;0.93;;
60354;SDS011;46198;51.464;-0.066;2023-03-01T15:20:44;2.43;;;1.10;;
60354;SDS011;46198;51.464;-0.066;2023-03-01T15:23:18;1.83;;;1.45;;
60354;SDS011;46198;51.464;-0.066;2023-03-01T15:25:49;2.60;;;1.57;;
60354;SDS011;46198;51.464;-0.066;2023-03-01T15:28:24;2.83;;;1.20;;
60354;SDS011;46198;51.464;-0.066;2023-03-01T15:30:56;3.83;;;1.20;;
60354;SDS011;46198;51.464;-0.066;2023-03-01T15:36:04;1.20;;;1.10;;
60354;SDS011;46198;51.464;-0.066;2023-03-01T15:39:00;4.90;;;1.20;;
60354;SDS011;46198;51.464;-0.066;2023-03-01T15:41:29;3.13;;;1.40;;